createdAt,value
2022-12-27T00:04:50.112Z,4.08
2022-12-27T00:09:51.655Z,4.10
2022-12-27T00:14:53.176Z,4.01
2022-12-27T00:19:54.714Z,3.97
2022-12-27T00:24:56.293Z,3.98
2022-12-27T00:29:58.124Z,4.07
2022-12-27T00:34:59.593Z,4.13
2022-12-27T00:40:01.186Z,4.16
2022-12-27T00:45:02.714Z,4.10
2022-12-27T00:50:05.010Z,4.12
2022-12-27T00:55:06.858Z,4.18
2022-12-27T01:00:10.623Z,4.36
2022-12-27T01:05:12.332Z,4.39
2022-12-27T01:10:14.017Z,4.26
2022-12-27T01:15:15.593Z,4.37
2022-12-27T01:20:17.181Z,4.42
2022-12-27T01:25:18.704Z,4.39
2022-12-27T01:30:20.191Z,4.38
2022-12-27T01:35:21.651Z,4.35
2022-12-27T01:40:23.306Z,4.24
2022-12-27T01:45:43.667Z,4.31
2022-12-27T01:50:49.285Z,4.34
2022-12-27T01:55:56.865Z,4.33
2022-12-27T02:00:59.270Z,4.25
2022-12-27T02:06:03.076Z,4.30
2022-12-27T02:11:06.185Z,4.23
2022-12-27T02:16:18.598Z,4.20
2022-12-27T02:21:45.933Z,4.30
2022-12-27T02:27:07.904Z,4.39
2022-12-27T02:32:16.955Z,4.34
2022-12-27T02:37:20.811Z,4.21
2022-12-27T02:42:41.029Z,4.13
2022-12-27T02:48:03.937Z,4.13
2022-12-27T02:53:08.368Z,4.24
2022-12-27T02:58:32.268Z,4.21
2022-12-27T03:03:47.145Z,4.11
2022-12-27T03:08:59.662Z,4.10
2022-12-27T03:14:53.967Z,4.11
2022-12-27T03:20:21.787Z,4.09
2022-12-27T03:25:31.013Z,4.07
2022-12-27T03:30:51.727Z,3.97
2022-12-27T03:36:20.847Z,4.00
2022-12-27T03:41:49.799Z,4.04
2022-12-27T03:46:59.507Z,4.16
2022-12-27T03:52:31.668Z,4.11
2022-12-27T03:57:33.362Z,3.96
2022-12-27T04:02:35.015Z,3.91
2022-12-27T04:07:36.651Z,3.91
2022-12-27T04:12:57.122Z,4.04
2022-12-27T04:18:17.099Z,3.94
2022-12-27T04:23:37.401Z,3.95
2022-12-27T04:28:57.980Z,4.08
2022-12-27T04:34:18.161Z,4.06
2022-12-27T04:39:19.681Z,4.03
2022-12-27T04:44:39.825Z,3.95
2022-12-27T04:50:00.168Z,3.92
2022-12-27T04:55:18.571Z,3.78
2022-12-27T05:00:40.354Z,3.76
2022-12-27T05:05:44.039Z,3.76
2022-12-27T05:11:04.194Z,3.68
2022-12-27T05:16:06.290Z,3.62
2022-12-27T05:21:08.362Z,3.54
2022-12-27T05:26:09.832Z,3.52
2022-12-27T05:31:11.402Z,3.69
2022-12-27T05:36:13.515Z,3.72
2022-12-27T05:41:15.206Z,3.71
2022-12-27T05:46:20.154Z,3.71
2022-12-27T05:51:22.015Z,3.70
2022-12-27T05:56:23.527Z,3.75
2022-12-27T06:01:25.215Z,3.75
2022-12-27T06:06:26.814Z,3.70
2022-12-27T06:11:28.294Z,3.59
2022-12-27T06:16:29.823Z,3.63
2022-12-27T06:21:31.367Z,3.57
2022-12-27T06:26:33.347Z,3.59
2022-12-27T06:31:35.161Z,3.70
2022-12-27T06:36:36.666Z,3.75
2022-12-27T06:41:38.162Z,3.71
2022-12-27T06:46:39.639Z,3.70
2022-12-27T06:51:41.257Z,3.73
2022-12-27T06:56:43.004Z,3.80
2022-12-27T07:01:44.581Z,3.78
2022-12-27T07:06:46.255Z,3.78
2022-12-27T07:11:47.877Z,3.82
2022-12-27T07:16:50.125Z,3.79
2022-12-27T07:21:51.704Z,3.67
2022-12-27T07:26:53.233Z,3.49
2022-12-27T07:31:54.802Z,3.32
2022-12-27T07:36:56.329Z,3.26
2022-12-27T07:42:00.725Z,3.31
2022-12-27T07:47:05.283Z,3.21
2022-12-27T07:52:06.741Z,3.12
2022-12-27T07:57:08.295Z,3.03
2022-12-27T08:02:10.094Z,3.04
2022-12-27T08:07:15.404Z,3.05
2022-12-27T08:12:17.064Z,3.05
2022-12-27T08:17:22.701Z,3.07
2022-12-27T08:22:24.761Z,3.08
2022-12-27T08:27:26.420Z,3.16
2022-12-27T08:32:27.932Z,3.25
2022-12-27T08:37:29.535Z,3.34
2022-12-27T08:42:31.057Z,3.47
2022-12-27T08:47:32.569Z,3.60
2022-12-27T08:52:35.275Z,3.67
2022-12-27T08:57:36.768Z,3.76
2022-12-27T09:02:38.449Z,3.98
2022-12-27T09:07:40.053Z,4.12
2022-12-27T09:12:41.919Z,4.17
2022-12-27T09:17:43.848Z,4.25
2022-12-27T09:22:45.498Z,4.37
2022-12-27T09:27:46.988Z,4.58
2022-12-27T09:32:48.534Z,4.61
2022-12-27T09:37:50.867Z,4.57
2022-12-27T09:43:19.488Z,4.44
2022-12-27T09:48:39.646Z,4.65
2022-12-27T09:54:00.206Z,4.84
2022-12-27T09:59:07.405Z,4.99
2022-12-27T10:04:13.399Z,5.06
2022-12-27T10:09:46.011Z,5.09
2022-12-27T10:15:09.352Z,5.07
2022-12-27T10:20:20.194Z,5.21
2022-12-27T10:25:24.755Z,5.30
2022-12-27T10:30:30.615Z,5.47
2022-12-27T10:35:32.111Z,5.46
2022-12-27T10:40:49.040Z,5.49
2022-12-27T10:45:50.556Z,5.35
2022-12-27T10:50:59.751Z,5.26
2022-12-27T10:56:20.898Z,5.30
2022-12-27T11:01:24.291Z,5.30
2022-12-27T11:06:26.221Z,5.18
2022-12-27T11:11:27.868Z,5.29
2022-12-27T11:16:32.236Z,5.48
2022-12-27T11:21:39.145Z,5.58
2022-12-27T11:26:53.928Z,5.38
2022-12-27T11:31:56.864Z,5.09
2022-12-27T11:37:14.087Z,4.97
2022-12-27T11:42:43.068Z,4.83
2022-12-27T11:47:44.483Z,4.79
2022-12-27T11:53:01.153Z,4.91
2022-12-27T11:58:48.922Z,4.92
2022-12-27T12:04:28.013Z,4.76
2022-12-27T12:09:34.500Z,4.65
2022-12-27T12:14:54.243Z,4.68
2022-12-27T12:20:17.443Z,4.81
2022-12-27T12:25:41.873Z,4.68
2022-12-27T12:30:56.068Z,4.58
2022-12-27T12:36:18.018Z,4.62
2022-12-27T12:41:42.756Z,4.75
2022-12-27T12:46:57.691Z,4.84
2022-12-27T12:52:38.082Z,4.82
2022-12-27T12:58:05.789Z,4.87
2022-12-27T13:03:17.843Z,4.88
2022-12-27T13:08:42.527Z,5.03
2022-12-27T13:14:02.800Z,5.11
2022-12-27T13:19:22.416Z,5.17
2022-12-27T13:24:51.667Z,5.15
2022-12-27T13:30:24.088Z,5.04
2022-12-27T13:36:03.115Z,5.00
2022-12-27T13:41:30.691Z,4.92
2022-12-27T13:46:58.993Z,4.81
2022-12-27T13:52:29.587Z,4.66
2022-12-27T13:57:38.924Z,4.67
2022-12-27T14:03:04.973Z,4.71
2022-12-27T14:08:28.150Z,4.78
2022-12-27T14:13:42.437Z,4.74
2022-12-27T14:18:58.718Z,4.67
2022-12-27T14:24:25.403Z,4.63
2022-12-27T14:30:04.819Z,4.49
2022-12-27T14:35:09.246Z,4.51
2022-12-27T14:40:41.508Z,4.45
2022-12-27T14:46:01.293Z,4.45
2022-12-27T14:52:00.019Z,4.42
2022-12-27T14:57:19.389Z,4.49
2022-12-27T15:02:41.671Z,4.54
2022-12-27T15:08:00.991Z,4.60
2022-12-27T15:13:02.481Z,4.63
2022-12-27T15:18:21.680Z,4.51
2022-12-27T15:23:23.151Z,4.44
2022-12-27T15:28:36.772Z,4.36
2022-12-27T15:34:26.698Z,4.31
2022-12-27T15:39:34.132Z,4.31
2022-12-27T15:45:00.602Z,4.32
2022-12-27T15:50:47.866Z,4.29
2022-12-27T15:56:08.191Z,4.39
2022-12-27T16:01:29.678Z,4.44
2022-12-27T16:06:34.429Z,4.52
2022-12-27T16:12:35.952Z,4.43
2022-12-27T16:17:56.223Z,4.49
2022-12-27T16:23:02.909Z,4.48
2022-12-27T16:28:04.369Z,4.52
2022-12-27T16:33:10.867Z,4.43
2022-12-27T16:38:22.190Z,4.34
2022-12-27T16:43:38.871Z,4.26
2022-12-27T16:49:02.024Z,4.31
2022-12-27T16:54:26.701Z,4.36
2022-12-27T17:00:05.670Z,4.41
2022-12-27T17:05:34.494Z,4.41
2022-12-27T17:10:42.138Z,4.46
2022-12-27T17:15:56.714Z,4.46
2022-12-27T17:21:04.360Z,4.52
2022-12-27T17:26:22.205Z,4.43
2022-12-27T17:31:47.085Z,4.34
2022-12-27T17:36:53.253Z,4.34
2022-12-27T17:42:23.008Z,4.46
2022-12-27T17:48:03.455Z,4.52
2022-12-27T17:53:30.542Z,4.52
2022-12-27T17:58:34.483Z,4.52
2022-12-27T18:03:41.815Z,4.49
2022-12-27T18:08:47.181Z,4.59
2022-12-27T18:13:54.442Z,4.69
2022-12-27T18:18:59.923Z,4.68
2022-12-27T18:24:01.514Z,4.56
2022-12-27T18:29:05.040Z,4.63
2022-12-27T18:34:19.534Z,4.68
2022-12-27T18:39:31.203Z,4.62
2022-12-27T18:44:47.046Z,4.57
2022-12-27T18:49:55.545Z,4.61
2022-12-27T18:55:28.979Z,4.55
2022-12-27T19:00:31.052Z,4.54
2022-12-27T19:05:32.848Z,4.55
2022-12-27T19:10:34.655Z,4.60
2022-12-27T19:15:44.074Z,4.60
2022-12-27T19:20:54.484Z,4.55
2022-12-27T19:26:00.276Z,4.53
2022-12-27T19:31:21.534Z,4.49
2022-12-27T19:36:47.441Z,4.39
2022-12-27T19:41:50.255Z,4.29
2022-12-27T19:46:51.741Z,4.23
2022-12-27T19:51:56.406Z,4.27
2022-12-27T19:56:57.942Z,4.23
2022-12-27T20:01:59.549Z,4.10
2022-12-27T20:07:01.542Z,4.03
2022-12-27T20:12:03.210Z,4.07
2022-12-27T20:17:04.891Z,4.27
2022-12-27T20:22:06.565Z,4.35
2022-12-27T20:27:08.098Z,4.50
2022-12-27T20:32:09.720Z,4.47
2022-12-27T20:37:11.392Z,4.46
2022-12-27T20:42:12.916Z,4.50
2022-12-27T20:47:14.513Z,4.43
2022-12-27T20:52:16.991Z,4.39
2022-12-27T20:57:18.568Z,4.39
2022-12-27T21:02:20.270Z,4.42
2022-12-27T21:07:22.086Z,4.46
2022-12-27T21:12:23.666Z,4.35
2022-12-27T21:17:25.210Z,4.33
2022-12-27T21:22:26.697Z,4.41
2022-12-27T21:27:28.272Z,4.46
2022-12-27T21:32:30.009Z,4.41
2022-12-27T21:37:31.523Z,4.24
2022-12-27T21:42:33.130Z,4.20
2022-12-27T21:47:34.680Z,4.19
2022-12-27T21:52:36.241Z,4.23
2022-12-27T21:57:37.733Z,4.26
2022-12-27T22:02:39.368Z,4.19
2022-12-27T22:07:41.005Z,4.15
2022-12-27T22:12:42.554Z,4.24
2022-12-27T22:17:44.063Z,4.36
2022-12-27T22:22:45.654Z,4.38
2022-12-27T22:27:47.186Z,4.41
2022-12-27T22:32:48.714Z,4.33
2022-12-27T22:37:50.186Z,4.34
2022-12-27T22:42:51.703Z,4.37
2022-12-27T22:47:53.287Z,4.37
2022-12-27T22:52:54.826Z,4.33
2022-12-27T22:57:56.364Z,4.22
2022-12-27T23:02:57.878Z,4.16
2022-12-27T23:08:05.899Z,4.30
2022-12-27T23:13:08.380Z,4.29
2022-12-27T23:18:09.914Z,4.15
2022-12-27T23:23:11.450Z,4.20
2022-12-27T23:28:13.030Z,4.23
2022-12-27T23:33:14.656Z,4.31
2022-12-27T23:38:16.150Z,4.25
2022-12-27T23:43:50.621Z,4.20
2022-12-27T23:48:39.065Z,4.26
2022-12-27T23:53:40.660Z,4.25
2022-12-27T23:58:42.791Z,4.28
